createdAt,value
2022-08-21T02:06:27.717Z,96986.44
2022-08-21T02:08:53.658Z,96983.47
2022-08-21T02:11:19.615Z,96974.81
2022-08-21T02:13:45.623Z,96973.84
2022-08-21T02:16:11.632Z,96972.13
2022-08-21T02:18:39.423Z,96965.91
2022-08-21T02:21:05.481Z,96969.28
2022-08-21T02:23:32.152Z,96963.41
2022-08-21T02:25:58.124Z,96966.00
2022-08-21T02:28:24.121Z,96956.41
2022-08-21T02:30:52.022Z,96958.56
2022-08-21T02:33:18.024Z,96957.56
2022-08-21T02:35:44.001Z,96957.09
2022-08-21T02:38:13.150Z,96946.69
2022-08-21T02:40:40.410Z,96948.50
2022-08-21T02:43:15.010Z,96947.34
2022-08-21T02:45:40.972Z,96946.69
2022-08-21T02:48:06.910Z,96947.94
2022-08-21T02:50:33.760Z,96956.38
2022-08-21T02:53:00.029Z,96944.84
2022-08-21T02:55:26.158Z,96943.75
2022-08-21T02:57:53.121Z,96945.19
2022-08-21T03:00:19.102Z,96949.91
2022-08-21T03:02:45.047Z,96959.25
2022-08-21T03:05:11.917Z,96945.75
2022-08-21T03:07:37.894Z,96950.25
2022-08-21T03:10:03.834Z,96954.31
2022-08-21T03:12:30.217Z,96946.66
2022-08-21T03:14:57.001Z,96948.84
2022-08-21T03:17:29.839Z,96949.13
2022-08-21T03:19:56.247Z,96950.22
2022-08-21T03:22:22.196Z,96956.13
2022-08-21T03:24:48.137Z,96939.88
2022-08-21T03:27:15.251Z,96935.72
2022-08-21T03:29:41.190Z,96939.31
2022-08-21T03:32:07.151Z,96932.72
2022-08-21T03:34:33.986Z,96943.66
2022-08-21T03:36:59.998Z,96948.53
2022-08-21T03:39:25.958Z,96948.72
2022-08-21T03:41:51.930Z,96954.22
2022-08-21T03:44:18.572Z,96949.97
2022-08-21T03:46:44.510Z,96957.78
2022-08-21T03:49:10.500Z,96952.19
2022-08-21T03:51:37.139Z,96955.44
2022-08-21T03:54:03.538Z,96952.78
2022-08-21T03:56:29.591Z,96955.22
2022-08-21T03:58:55.553Z,96961.97
2022-08-21T04:01:22.304Z,96957.72
2022-08-21T04:03:50.589Z,96961.34
2022-08-21T04:06:16.941Z,96968.25
2022-08-21T04:08:43.548Z,96965.81
2022-08-21T04:11:09.614Z,96962.97
2022-08-21T04:13:35.561Z,96968.63
2022-08-21T04:16:10.407Z,96960.41
2022-08-21T04:18:37.084Z,96965.56
2022-08-21T04:21:03.100Z,96965.22
2022-08-21T04:23:30.904Z,96964.13
2022-08-21T04:25:57.525Z,96969.19
2022-08-21T04:28:23.615Z,96969.09
2022-08-21T04:30:55.143Z,96967.94
2022-08-21T04:33:21.077Z,96967.47
2022-08-21T04:35:47.781Z,96967.22
2022-08-21T04:38:13.832Z,96962.56
2022-08-21T04:40:39.789Z,96966.56
2022-08-21T04:43:06.468Z,96973.75
2022-08-21T04:45:32.801Z,96974.09
2022-08-21T04:47:59.143Z,96977.38
2022-08-21T04:50:25.392Z,96979.63
2022-08-21T04:52:53.070Z,96989.31
2022-08-21T04:58:01.888Z,96985.53
2022-08-21T05:00:28.034Z,96994.81
2022-08-21T07:01:29.824Z,97061.69
2022-08-21T07:03:55.865Z,97069.13
2022-08-21T07:06:22.543Z,97065.78
2022-08-21T07:08:48.552Z,97064.16
2022-08-21T07:11:15.245Z,97065.19
2022-08-21T07:13:41.933Z,97061.88
2022-08-21T07:16:07.992Z,97065.69
2022-08-21T07:18:33.942Z,97069.66
2022-08-21T07:20:59.935Z,97072.56
2022-08-21T07:23:25.940Z,97075.38
2022-08-21T07:25:52.711Z,97085.09
2022-08-21T07:28:18.705Z,97071.31
2022-08-21T07:30:44.761Z,97079.19
2022-08-21T07:33:10.722Z,97073.94
2022-08-21T07:35:37.406Z,97072.56
2022-08-21T07:38:03.444Z,97079.91
2022-08-21T07:40:29.424Z,97071.63
2022-08-21T07:42:55.553Z,97078.44
2022-08-21T07:45:21.591Z,97068.16
2022-08-21T07:47:47.530Z,97066.69
2022-08-21T07:50:14.163Z,97073.97
2022-08-21T07:52:40.174Z,97065.78
2022-08-21T07:55:06.883Z,97067.88
2022-08-21T07:57:32.946Z,97074.94
2022-08-21T07:59:59.000Z,97073.53
2022-08-21T08:02:25.013Z,97073.66
2022-08-21T08:04:51.283Z,97069.78
2022-08-21T08:07:17.331Z,97074.19
2022-08-21T08:09:43.985Z,97075.41
2022-08-21T08:12:09.995Z,97072.00
2022-08-21T08:14:36.795Z,97073.44
2022-08-21T08:17:02.778Z,97066.03
2022-08-21T08:19:28.745Z,97064.41
2022-08-21T08:21:54.775Z,97066.91
2022-08-21T08:24:21.396Z,97062.03
2022-08-21T08:26:53.466Z,97062.31
2022-08-21T08:29:19.987Z,97061.41
2022-08-21T08:31:45.957Z,97070.41
2022-08-21T08:34:11.893Z,97066.31
2022-08-21T08:36:50.573Z,97066.13
2022-08-21T08:39:26.302Z,97072.72
2022-08-21T08:41:55.093Z,97057.31
2022-08-21T08:44:24.749Z,97069.50
2022-08-21T08:46:57.494Z,97065.13
2022-08-21T08:49:24.317Z,97060.94
2022-08-21T08:51:53.011Z,97064.50
2022-08-21T08:54:19.384Z,97068.59
2022-08-21T08:56:45.326Z,97066.75
2022-08-21T08:59:11.951Z,97070.28
2022-08-21T09:01:39.247Z,97066.28
2022-08-21T09:04:05.332Z,97069.91
2022-08-21T09:06:31.279Z,97072.41
2022-08-21T09:08:57.312Z,97076.69
2022-08-21T09:11:23.300Z,97083.50
2022-08-21T09:13:49.677Z,97082.69
2022-08-21T09:16:15.723Z,97072.09
2022-08-21T09:18:41.744Z,97070.94
2022-08-21T09:21:08.400Z,97067.50
2022-08-21T09:23:34.390Z,97065.09
2022-08-21T09:26:00.346Z,97064.03
2022-08-21T09:28:27.012Z,97060.13
2022-08-21T09:30:53.015Z,97065.16
2022-08-21T09:33:18.987Z,97057.66
2022-08-21T09:35:44.972Z,97049.66
2022-08-21T09:38:10.964Z,97045.13
2022-08-21T09:40:38.608Z,97043.56
2022-08-21T09:43:04.934Z,97043.66
2022-08-21T09:45:33.899Z,97042.53
2022-08-21T09:48:01.686Z,97039.47
2022-08-21T09:50:28.198Z,97029.91
2022-08-21T09:52:56.601Z,97039.03
2022-08-21T11:48:40.594Z,96971.84
2022-08-21T11:51:06.804Z,96969.50
2022-08-21T11:53:32.750Z,96968.84
2022-08-21T11:55:59.668Z,96965.34
2022-08-21T11:58:25.664Z,96968.47
2022-08-21T12:00:51.645Z,96973.09
2022-08-21T12:03:18.399Z,96966.13
2022-08-21T12:05:44.945Z,96965.31
2022-08-21T12:08:10.935Z,96965.28
2022-08-21T12:10:36.941Z,96965.41
2022-08-21T12:13:03.614Z,96959.69
2022-08-21T12:15:29.561Z,96963.38
2022-08-21T12:17:55.583Z,96960.50
2022-08-21T12:20:21.564Z,96961.03
2022-08-21T12:22:47.549Z,96959.44
2022-08-21T12:25:21.485Z,96953.41
2022-08-21T12:27:48.520Z,96959.16
2022-08-21T12:30:14.470Z,96952.13
2022-08-21T12:32:40.467Z,96953.91
2022-08-21T12:35:07.239Z,96951.97
2022-08-21T12:37:33.210Z,96947.97
2022-08-21T12:39:59.297Z,96957.72
2022-08-21T12:42:25.356Z,96957.25
2022-08-21T12:44:52.034Z,96951.81
2022-08-21T12:47:18.069Z,96952.13
2022-08-21T12:49:44.072Z,96950.22
2022-08-21T12:52:10.051Z,96947.97
2022-08-21T12:54:36.194Z,96951.66
2022-08-21T12:57:02.999Z,96952.91
2022-08-21T12:59:28.975Z,96938.91
2022-08-21T13:01:55.004Z,96945.91
2022-08-21T13:04:21.208Z,96949.09
2022-08-21T13:06:47.976Z,96955.00
2022-08-21T13:09:13.974Z,96961.34
2022-08-21T13:11:40.971Z,96959.31
2022-08-21T13:14:07.748Z,96958.34
2022-08-21T13:16:36.627Z,96955.44
2022-08-21T13:19:03.356Z,96961.03
2022-08-21T13:21:29.336Z,96965.75
2022-08-21T13:23:55.337Z,96970.88
2022-08-21T13:26:21.276Z,96961.19
2022-08-21T13:28:47.223Z,96975.44
2022-08-21T13:31:14.151Z,96978.63
2022-08-21T13:33:40.385Z,96979.34
2022-08-21T13:36:06.332Z,96979.09
2022-08-21T13:38:32.319Z,96981.97
2022-08-21T13:40:59.003Z,96984.44
2022-08-21T13:43:24.996Z,96986.09
2022-08-21T13:45:51.035Z,96984.19
2022-08-21T13:48:17.761Z,96978.13
2022-08-21T13:50:44.375Z,96977.22
2022-08-21T13:53:10.365Z,96989.41
2022-08-21T13:55:36.355Z,96983.38
2022-08-21T13:58:02.297Z,96979.78
2022-08-21T14:00:28.348Z,96983.63
2022-08-21T14:02:54.316Z,96991.00
2022-08-21T14:05:20.306Z,96980.06
2022-08-21T14:07:46.373Z,96994.31
2022-08-21T14:10:12.394Z,96986.53
2022-08-21T14:12:38.366Z,96986.25
2022-08-21T14:15:04.350Z,96976.63
2022-08-21T14:17:33.340Z,96978.59
2022-08-21T14:20:00.143Z,96977.31
2022-08-21T14:22:26.534Z,96978.03
2022-08-21T14:24:55.114Z,96975.84
2022-08-21T14:27:21.559Z,96990.84
2022-08-21T14:29:47.826Z,96983.31
2022-08-21T14:32:21.832Z,96976.06
2022-08-21T14:34:51.172Z,96983.13
2022-08-21T14:37:17.408Z,96979.16
2022-08-21T14:39:45.324Z,96984.50
2022-08-21T16:25:54.878Z,96954.88
2022-08-21T16:28:20.822Z,96950.88
2022-08-21T16:30:47.909Z,96947.97
2022-08-21T16:33:13.910Z,96958.16
2022-08-21T16:35:39.852Z,96956.94
2022-08-21T16:38:05.909Z,96954.56
2022-08-21T16:40:31.920Z,96964.00
2022-08-21T16:42:58.058Z,96958.06
2022-08-21T16:45:25.734Z,96960.53
2022-08-21T16:47:53.077Z,96966.84
2022-08-21T16:50:19.033Z,96969.78
2022-08-21T16:52:45.015Z,96967.44
2022-08-21T16:55:11.084Z,96964.25
2022-08-21T16:57:37.044Z,96964.03
2022-08-21T17:00:03.721Z,96963.19
2022-08-21T17:02:29.781Z,96973.66
2022-08-21T17:04:55.756Z,96975.09
2022-08-21T17:07:22.424Z,96965.34
2022-08-21T17:09:48.647Z,96957.34
2022-08-21T17:12:14.653Z,96959.63
2022-08-21T17:14:40.815Z,96966.69
2022-08-21T17:17:06.834Z,96966.34
2022-08-21T17:19:32.797Z,96964.72
2022-08-21T17:21:59.543Z,96960.03
2022-08-21T17:24:25.563Z,96968.69
2022-08-21T17:26:51.505Z,96965.06
2022-08-21T17:29:18.231Z,96970.53
2022-08-21T17:31:44.286Z,96964.66
2022-08-21T17:34:10.249Z,96966.13
2022-08-21T17:36:36.681Z,96971.06
2022-08-21T17:39:02.667Z,96983.66
2022-08-21T17:41:28.594Z,96985.25
2022-08-21T17:43:55.290Z,96991.38
2022-08-21T17:46:21.278Z,96990.78
2022-08-21T17:48:47.981Z,96990.06
2022-08-21T17:51:13.943Z,96993.66
2022-08-21T17:53:39.928Z,96990.56
2022-08-21T17:56:05.902Z,96991.25
2022-08-21T17:58:32.153Z,97001.38
2022-08-21T18:00:59.031Z,97003.16
2022-08-21T18:03:25.024Z,96998.72
2022-08-21T18:05:50.980Z,97007.56
2022-08-21T18:08:16.998Z,97006.06
2022-08-21T18:10:43.214Z,97001.75
2022-08-21T18:13:09.184Z,97011.56
2022-08-21T18:15:36.177Z,97008.06
2022-08-21T18:18:02.681Z,97007.16
2022-08-21T18:20:29.149Z,97003.94
2022-08-21T18:22:55.871Z,97005.88
2022-08-21T18:25:22.393Z,97009.56
2022-08-21T18:27:48.613Z,97008.47
2022-08-21T18:30:15.295Z,97004.16
2022-08-21T18:32:41.769Z,97007.75
2022-08-21T18:35:07.777Z,97003.19
2022-08-21T18:37:37.297Z,97003.19
2022-08-21T18:40:03.683Z,97008.16
2022-08-21T18:42:29.686Z,97016.91
2022-08-21T18:44:56.197Z,97017.88
2022-08-21T18:47:22.430Z,97017.06
2022-08-21T18:49:48.590Z,97015.34
2022-08-21T18:52:16.135Z,97020.34
2022-08-21T18:54:49.567Z,97012.00
2022-08-21T18:57:16.503Z,97013.06
2022-08-21T18:59:42.464Z,97014.50
2022-08-21T19:02:09.652Z,97004.47
2022-08-21T19:07:23.547Z,97009.34
2022-08-21T19:10:21.087Z,97006.06
2022-08-21T19:12:36.045Z,97004.47
2022-08-21T19:15:02.796Z,97005.25
2022-08-21T19:17:29.162Z,97001.06
2022-08-21T19:19:57.030Z,97010.31
2022-08-21T21:19:23.980Z,96982.53
2022-08-21T21:21:51.521Z,96973.63
2022-08-21T21:24:18.345Z,96975.31
2022-08-21T21:26:48.713Z,96973.69
2022-08-21T21:29:14.959Z,96969.44
2022-08-21T21:31:41.838Z,96968.78
2022-08-21T21:34:07.788Z,96965.06
2022-08-21T21:36:51.353Z,96970.72
2022-08-21T21:39:18.402Z,96962.13
2022-08-21T21:41:44.641Z,96969.34
2022-08-21T21:44:10.596Z,96960.19
2022-08-21T21:46:37.351Z,96960.78
2022-08-21T21:49:04.811Z,96969.94
2022-08-21T21:51:31.338Z,96960.19
2022-08-21T21:54:01.250Z,96962.53
2022-08-21T21:56:27.815Z,96956.00
2022-08-21T21:58:55.068Z,96957.25
2022-08-21T22:01:21.009Z,96954.28
2022-08-21T22:03:49.865Z,96955.91
2022-08-21T22:06:18.746Z,96958.94
2022-08-21T22:08:50.544Z,96955.41
2022-08-21T22:14:02.920Z,96955.34
2022-08-21T22:16:29.404Z,96961.09
2022-08-21T22:18:56.137Z,96955.56
2022-08-21T22:21:23.939Z,96959.34
2022-08-21T22:23:50.207Z,96959.03
2022-08-21T22:26:16.357Z,96951.03
2022-08-21T22:28:42.893Z,96942.34
2022-08-21T22:31:11.017Z,96940.59
2022-08-21T22:33:37.069Z,96947.34
2022-08-21T22:36:03.099Z,96941.81
2022-08-21T22:38:30.030Z,96942.28
2022-08-21T22:40:56.649Z,96933.19
2022-08-21T22:43:22.637Z,96935.00
2022-08-21T22:45:49.560Z,96929.03
2022-08-21T22:48:22.733Z,96924.25
2022-08-21T22:50:49.045Z,96931.31
2022-08-21T22:53:16.205Z,96930.41
2022-08-21T22:55:44.555Z,96921.88
2022-08-21T22:58:10.615Z,96925.50
2022-08-21T23:00:36.577Z,96912.84
2022-08-21T23:03:03.600Z,96904.06
2022-08-21T23:05:30.784Z,96915.75
2022-08-21T23:07:56.832Z,96915.41
2022-08-21T23:10:23.043Z,96903.41
2022-08-21T23:15:39.079Z,96909.91
2022-08-21T23:18:05.983Z,96911.75
2022-08-21T23:20:39.031Z,96907.75
2022-08-21T23:23:05.090Z,96897.69
2022-08-21T23:25:32.366Z,96896.38
2022-08-21T23:27:58.325Z,96893.59
2022-08-21T23:30:24.298Z,96900.78
2022-08-21T23:32:53.426Z,96886.09
2022-08-21T23:35:20.039Z,96893.94
2022-08-21T23:37:49.070Z,96880.81
2022-08-21T23:40:15.974Z,96882.78
2022-08-21T23:42:45.741Z,96885.44
2022-08-21T23:47:57.791Z,96880.19
2022-08-21T23:50:23.799Z,96871.78
2022-08-21T23:52:50.609Z,96876.28
2022-08-21T23:55:16.659Z,96872.81
2022-08-21T23:57:42.886Z,96877.50
